sensor_id;sensor_type;location;lat;lon;timestamp;pressure;altitude;pressure_sealevel;temperature;humidity
51259;BME280;37327;54.254;18.504;2022-09-29T00:00:18;99229.56;;;8.05;100.00
51259;BME280;37327;54.254;18.504;2022-09-29T00:03:27;99227.88;;;8.04;100.00
51259;BME280;37327;54.254;18.504;2022-09-29T00:06:33;99224.56;;;8.02;100.00
51259;BME280;37327;54.254;18.504;2022-09-29T00:09:41;99233.26;;;8.04;100.00
51259;BME280;37327;54.254;18.504;2022-09-29T00:12:51;99231.60;;;8.03;100.00
51259;BME280;37327;54.254;18.504;2022-09-29T00:16:23;99232.43;;;8.03;100.00
51259;BME280;37327;54.254;18.504;2022-09-29T00:19:30;99230.38;;;8.05;100.00
51259;BME280;37327;54.254;18.504;2022-09-29T00:22:38;99229.14;;;8.08;100.00
51259;BME280;37327;54.254;18.504;2022-09-29T00:25:45;99230.82;;;8.09;100.00
51259;BME280;37327;54.254;18.504;2022-09-29T00:28:54;99227.95;;;8.10;100.00
51259;BME280;37327;54.254;18.504;2022-09-29T00:32:06;99229.77;;;8.10;100.00
51259;BME280;37327;54.254;18.504;2022-09-29T00:35:37;99230.41;;;8.12;100.00
51259;BME280;37327;54.254;18.504;2022-09-29T00:38:45;99231.66;;;8.16;100.00
51259;BME280;37327;54.254;18.504;2022-09-29T00:41:53;99222.59;;;8.17;100.00
51259;BME280;37327;54.254;18.504;2022-09-29T00:48:26;99226.10;;;8.18;100.00
51259;BME280;37327;54.254;18.504;2022-09-29T00:55:27;99221.55;;;8.18;100.00
51259;BME280;37327;54.254;18.504;2022-09-29T00:58:44;99227.59;;;8.20;100.00
51259;BME280;37327;54.254;18.504;2022-09-29T01:02:26;99231.73;;;8.23;100.00
51259;BME280;37327;54.254;18.504;2022-09-29T01:05:36;99227.17;;;8.23;100.00
51259;BME280;37327;54.254;18.504;2022-09-29T01:08:52;99236.29;;;8.22;100.00
51259;BME280;37327;54.254;18.504;2022-09-29T01:12:04;99234.61;;;8.21;100.00
51259;BME280;37327;54.254;18.504;2022-09-29T01:15:13;99238.34;;;8.20;100.00
51259;BME280;37327;54.254;18.504;2022-09-29T01:18:48;99236.66;;;8.19;100.00
51259;BME280;37327;54.254;18.504;2022-09-29T01:25:28;99238.34;;;8.20;100.00
51259;BME280;37327;54.254;18.504;2022-09-29T01:39:07;99235.78;;;8.12;100.00
51259;BME280;37327;54.254;18.504;2022-09-29T01:42:50;99242.01;;;8.13;100.00
51259;BME280;37327;54.254;18.504;2022-09-29T01:46:02;99235.59;;;8.14;100.00
51259;BME280;37327;54.254;18.504;2022-09-29T01:49:13;99230.41;;;8.12;100.00
51259;BME280;37327;54.254;18.504;2022-09-29T01:52:25;99240.53;;;8.10;100.00
51259;BME280;37327;54.254;18.504;2022-09-29T01:56:04;99242.77;;;8.06;100.00
51259;BME280;37327;54.254;18.504;2022-09-29T01:59:23;99248.37;;;8.05;100.00
51259;BME280;37327;54.254;18.504;2022-09-29T02:06:24;99250.13;;;7.91;100.00
51259;BME280;37327;54.254;18.504;2022-09-29T02:09:37;99252.89;;;7.76;100.00
51259;BME280;37327;54.254;18.504;2022-09-29T02:12:48;99261.09;;;7.68;100.00
51259;BME280;37327;54.254;18.504;2022-09-29T02:16:00;99263.52;;;7.63;100.00
51259;BME280;37327;54.254;18.504;2022-09-29T02:19:39;99261.09;;;7.68;100.00
51259;BME280;37327;54.254;18.504;2022-09-29T02:22:46;99262.83;;;7.76;100.00
51259;BME280;37327;54.254;18.504;2022-09-29T02:25:54;99258.27;;;7.76;100.00
51259;BME280;37327;54.254;18.504;2022-09-29T02:29:04;99260.77;;;7.78;100.00
51259;BME280;37327;54.254;18.504;2022-09-29T02:32:12;99261.59;;;7.78;100.00
51259;BME280;37327;54.254;18.504;2022-09-29T02:49:31;99273.02;;;7.87;100.00
51259;BME280;37327;54.254;18.504;2022-09-29T03:03:10;99280.89;;;7.88;100.00
51259;BME280;37327;54.254;18.504;2022-09-29T03:06:45;99276.79;;;7.93;100.00
51259;BME280;37327;54.254;18.504;2022-09-29T03:09:52;99274.95;;;7.93;100.00
51259;BME280;37327;54.254;18.504;2022-09-29T03:12:59;99287.35;;;7.94;100.00
51259;BME280;37327;54.254;18.504;2022-09-29T03:16:03;99284.48;;;7.96;100.00
51259;BME280;37327;54.254;18.504;2022-09-29T03:19:11;99281.60;;;7.97;100.00
51259;BME280;37327;54.254;18.504;2022-09-29T03:22:18;99283.24;;;7.98;100.00
51259;BME280;37327;54.254;18.504;2022-09-29T03:25:25;99287.41;;;8.01;100.00
51259;BME280;37327;54.254;18.504;2022-09-29T03:28:57;99288.05;;;8.03;100.00
51259;BME280;37327;54.254;18.504;2022-09-29T03:32:06;99278.95;;;8.04;100.00
51259;BME280;37327;54.254;18.504;2022-09-29T03:35:13;99278.31;;;8.02;100.00
51259;BME280;37327;54.254;18.504;2022-09-29T03:38:20;99287.41;;;8.01;100.00
51259;BME280;37327;54.254;18.504;2022-09-29T03:41:27;99285.11;;;7.98;100.00
51259;BME280;37327;54.254;18.504;2022-09-29T03:44:34;99290.23;;;7.93;100.00
51259;BME280;37327;54.254;18.504;2022-09-29T03:48:08;99294.73;;;7.85;100.00
51259;BME280;37327;54.254;18.504;2022-09-29T03:51:15;99297.79;;;7.82;100.00
51259;BME280;37327;54.254;18.504;2022-09-29T03:54:25;99298.84;;;7.81;100.00
51259;BME280;37327;54.254;18.504;2022-09-29T03:57:33;99302.35;;;7.82;100.00
51259;BME280;37327;54.254;18.504;2022-09-29T04:00:40;99306.68;;;7.83;100.00
51259;BME280;37327;54.254;18.504;2022-09-29T04:03:47;99300.48;;;7.82;100.00
51259;BME280;37327;54.254;18.504;2022-09-29T04:07:20;99308.36;;;7.84;100.00
51259;BME280;37327;54.254;18.504;2022-09-29T04:10:28;99310.86;;;7.85;100.00
51259;BME280;37327;54.254;18.504;2022-09-29T04:13:35;99302.57;;;7.87;100.00
51259;BME280;37327;54.254;18.504;2022-09-29T04:16:41;99310.26;;;7.90;100.00
51259;BME280;37327;54.254;18.504;2022-09-29T04:19:48;99312.57;;;7.93;100.00
51259;BME280;37327;54.254;18.504;2022-09-29T04:22:55;99312.36;;;7.95;100.00
51259;BME280;37327;54.254;18.504;2022-09-29T04:26:28;99312.99;;;7.97;100.00
51259;BME280;37327;54.254;18.504;2022-09-29T04:29:36;99312.17;;;7.96;100.00
51259;BME280;37327;54.254;18.504;2022-09-29T04:32:42;99319.22;;;7.97;100.00
51259;BME280;37327;54.254;18.504;2022-09-29T04:35:49;99323.32;;;7.93;100.00
51259;BME280;37327;54.254;18.504;2022-09-29T04:38:58;99324.15;;;7.94;100.00
51259;BME280;37327;54.254;18.504;2022-09-29T04:42:05;99326.20;;;7.91;100.00
51259;BME280;37327;54.254;18.504;2022-09-29T04:45:37;99331.96;;;7.88;100.00
51259;BME280;37327;54.254;18.504;2022-09-29T04:48:44;99331.96;;;7.88;100.00
51259;BME280;37327;54.254;18.504;2022-09-29T04:51:50;99331.96;;;7.88;100.00
51259;BME280;37327;54.254;18.504;2022-09-29T04:54:58;99334.45;;;7.90;100.00
51259;BME280;37327;54.254;18.504;2022-09-29T04:58:04;99339.23;;;7.95;100.00
51259;BME280;37327;54.254;18.504;2022-09-29T05:01:11;99342.56;;;7.97;100.00
51259;BME280;37327;54.254;18.504;2022-09-29T05:04:47;99339.50;;;8.00;100.00
51259;BME280;37327;54.254;18.504;2022-09-29T05:07:54;99347.38;;;8.01;100.00
51259;BME280;37327;54.254;18.504;2022-09-29T05:11:05;99350.88;;;8.02;100.00
51259;BME280;37327;54.254;18.504;2022-09-29T05:14:12;99343.27;;;8.05;100.00
51259;BME280;37327;54.254;18.504;2022-09-29T05:17:20;99357.34;;;8.07;100.00
51259;BME280;37327;54.254;18.504;2022-09-29T05:20:27;99347.42;;;8.08;100.00
51259;BME280;37327;54.254;18.504;2022-09-29T05:24:00;99356.13;;;8.10;100.00
51259;BME280;37327;54.254;18.504;2022-09-29T05:27:07;99353.05;;;8.13;100.00
51259;BME280;37327;54.254;18.504;2022-09-29T05:30:14;99351.00;;;8.15;100.00
51259;BME280;37327;54.254;18.504;2022-09-29T05:33:21;99353.70;;;8.15;100.00
51259;BME280;37327;54.254;18.504;2022-09-29T05:36:27;99357.39;;;8.14;100.00
51259;BME280;37327;54.254;18.504;2022-09-29T05:39:34;99350.18;;;8.15;100.00
51259;BME280;37327;54.254;18.504;2022-09-29T05:43:10;99355.74;;;8.13;100.00
51259;BME280;37327;54.254;18.504;2022-09-29T05:46:17;99360.09;;;8.14;100.00
51259;BME280;37327;54.254;18.504;2022-09-29T05:49:24;99361.76;;;8.15;100.00
51259;BME280;37327;54.254;18.504;2022-09-29T05:52:33;99365.53;;;8.21;100.00
51259;BME280;37327;54.254;18.504;2022-09-29T05:55:40;99367.81;;;8.24;100.00
51259;BME280;37327;54.254;18.504;2022-09-29T05:58:47;99363.52;;;8.29;100.00
51259;BME280;37327;54.254;18.504;2022-09-29T06:02:19;99372.84;;;8.34;100.00
51259;BME280;37327;54.254;18.504;2022-09-29T06:05:26;99374.13;;;8.38;100.00
51259;BME280;37327;54.254;18.504;2022-09-29T06:08:35;99383.82;;;8.54;100.00
51259;BME280;37327;54.254;18.504;2022-09-29T06:11:43;99374.72;;;8.89;100.00
51259;BME280;37327;54.254;18.504;2022-09-29T06:14:50;99371.80;;;9.26;100.00
51259;BME280;37327;54.254;18.504;2022-09-29T06:17:59;99374.37;;;9.47;100.00
51259;BME280;37327;54.254;18.504;2022-09-29T06:21:32;99379.81;;;9.74;100.00
51259;BME280;37327;54.254;18.504;2022-09-29T06:24:42;99385.63;;;9.78;100.00
51259;BME280;37327;54.254;18.504;2022-09-29T06:27:50;99388.74;;;9.75;100.00
51259;BME280;37327;54.254;18.504;2022-09-29T06:31:02;99393.91;;;9.76;100.00
51259;BME280;37327;54.254;18.504;2022-09-29T06:34:10;99394.54;;;9.78;100.00
51259;BME280;37327;54.254;18.504;2022-09-29T06:37:44;99395.78;;;9.76;100.00
51259;BME280;37327;54.254;18.504;2022-09-29T06:40:51;99407.19;;;9.71;100.00
51259;BME280;37327;54.254;18.504;2022-09-29T06:44:00;99405.30;;;9.65;100.00
51259;BME280;37327;54.254;18.504;2022-09-29T06:47:08;99419.99;;;9.62;100.00
51259;BME280;37327;54.254;18.504;2022-09-29T06:50:16;99420.22;;;9.61;100.00
51259;BME280;37327;54.254;18.504;2022-09-29T06:53:23;99423.30;;;9.58;100.00
51259;BME280;37327;54.254;18.504;2022-09-29T06:56:56;99414.17;;;9.59;100.00
51259;BME280;37327;54.254;18.504;2022-09-29T07:00:03;99417.92;;;9.58;100.00
51259;BME280;37327;54.254;18.504;2022-09-29T07:03:11;99415.22;;;9.58;100.00
51259;BME280;37327;54.254;18.504;2022-09-29T07:06:18;99423.92;;;9.60;100.00
51259;BME280;37327;54.254;18.504;2022-09-29T07:09:25;99425.39;;;9.62;100.00
51259;BME280;37327;54.254;18.504;2022-09-29T07:12:31;99425.81;;;9.66;100.00
51259;BME280;37327;54.254;18.504;2022-09-29T07:16:08;99428.51;;;9.66;100.00
51259;BME280;37327;54.254;18.504;2022-09-29T07:19:16;99427.50;;;9.67;100.00
51259;BME280;37327;54.254;18.504;2022-09-29T07:22:24;99432.66;;;9.68;100.00
51259;BME280;37327;54.254;18.504;2022-09-29T07:25:31;99439.29;;;9.66;100.00
51259;BME280;37327;54.254;18.504;2022-09-29T07:28:39;99441.16;;;9.65;100.00
51259;BME280;37327;54.254;18.504;2022-09-29T07:31:46;99441.59;;;9.69;100.00
51259;BME280;37327;54.254;18.504;2022-09-29T07:35:21;99449.09;;;9.80;100.00
51259;BME280;37327;54.254;18.504;2022-09-29T07:38:29;99451.22;;;10.05;100.00
51259;BME280;37327;54.254;18.504;2022-09-29T07:41:38;99454.65;;;10.47;100.00
51259;BME280;37327;54.254;18.504;2022-09-29T07:44:45;99462.49;;;10.95;100.00
51259;BME280;37327;54.254;18.504;2022-09-29T07:47:51;99459.96;;;11.27;100.00
51259;BME280;37327;54.254;18.504;2022-09-29T07:54:42;99460.06;;;11.59;96.86
51259;BME280;37327;54.254;18.504;2022-09-29T07:59:12;99469.20;;;11.58;95.50
51259;BME280;37327;54.254;18.504;2022-09-29T08:02:19;99469.00;;;11.59;94.59
51259;BME280;37327;54.254;18.504;2022-09-29T08:05:26;99471.03;;;11.71;95.27
51259;BME280;37327;54.254;18.504;2022-09-29T08:08:37;99474.76;;;11.76;94.64
51259;BME280;37327;54.254;18.504;2022-09-29T08:11:46;99466.85;;;11.75;94.02
51259;BME280;37327;54.254;18.504;2022-09-29T08:14:53;99472.05;;;11.76;94.71
51259;BME280;37327;54.254;18.504;2022-09-29T08:18:27;99477.27;;;11.71;93.21
51259;BME280;37327;54.254;18.504;2022-09-29T08:21:34;99486.23;;;11.65;93.49
51259;BME280;37327;54.254;18.504;2022-09-29T08:24:43;99482.91;;;11.63;93.08
51259;BME280;37327;54.254;18.504;2022-09-29T08:27:51;99479.80;;;11.59;93.02
51259;BME280;37327;54.254;18.504;2022-09-29T08:31:04;99488.58;;;11.55;92.76
51259;BME280;37327;54.254;18.504;2022-09-29T08:34:38;99487.75;;;11.48;92.65
51259;BME280;37327;54.254;18.504;2022-09-29T08:37:45;99500.23;;;11.49;92.91
51259;BME280;37327;54.254;18.504;2022-09-29T08:40:55;99499.79;;;11.52;92.43
51259;BME280;37327;54.254;18.504;2022-09-29T08:44:08;99509.78;;;11.51;91.96
51259;BME280;37327;54.254;18.504;2022-09-29T08:54:29;99514.05;;;11.85;92.59
51259;BME280;37327;54.254;18.504;2022-09-29T08:57:36;99526.91;;;11.97;92.44
51259;BME280;37327;54.254;18.504;2022-09-29T09:00:52;99531.28;;;11.98;91.64
51259;BME280;37327;54.254;18.504;2022-09-29T09:18:24;99540.99;;;12.12;89.42
51259;BME280;37327;54.254;18.504;2022-09-29T09:32:03;99550.04;;;12.70;86.91
51259;BME280;37327;54.254;18.504;2022-09-29T09:35:53;99557.41;;;12.56;85.81
51259;BME280;37327;54.254;18.504;2022-09-29T09:39:01;99555.20;;;12.46;86.36
51259;BME280;37327;54.254;18.504;2022-09-29T09:42:20;99554.79;;;12.42;86.79
51259;BME280;37327;54.254;18.504;2022-09-29T09:46:04;99561.45;;;12.40;87.05
51259;BME280;37327;54.254;18.504;2022-09-29T09:49:23;99569.36;;;12.41;87.76
51259;BME280;37327;54.254;18.504;2022-09-29T09:56:34;99577.05;;;12.44;86.63
51259;BME280;37327;54.254;18.504;2022-09-29T09:59:47;99590.14;;;12.48;86.18
51259;BME280;37327;54.254;18.504;2022-09-29T10:02:54;99583.91;;;12.47;85.99
51259;BME280;37327;54.254;18.504;2022-09-29T10:06:05;99585.18;;;12.44;86.59
51259;BME280;37327;54.254;18.504;2022-09-29T10:09:38;99591.84;;;12.42;86.14
51259;BME280;37327;54.254;18.504;2022-09-29T10:12:45;99592.49;;;12.37;86.02
51259;BME280;37327;54.254;18.504;2022-09-29T10:16:02;99608.16;;;12.29;85.12
51259;BME280;37327;54.254;18.504;2022-09-29T10:19:11;99610.47;;;12.18;85.49
51259;BME280;37327;54.254;18.504;2022-09-29T10:22:19;99611.53;;;12.11;84.67
51259;BME280;37327;54.254;18.504;2022-09-29T10:25:57;99615.51;;;12.15;85.61
51259;BME280;37327;54.254;18.504;2022-09-29T10:32:31;99628.42;;;12.13;84.34
51259;BME280;37327;54.254;18.504;2022-09-29T10:36:10;99625.69;;;12.19;84.79
51259;BME280;37327;54.254;18.504;2022-09-29T10:42:43;99626.91;;;12.23;84.85
51259;BME280;37327;54.254;18.504;2022-09-29T10:45:57;99627.72;;;12.31;84.33
51259;BME280;37327;54.254;18.504;2022-09-29T10:49:30;99629.57;;;12.30;83.80
51259;BME280;37327;54.254;18.504;2022-09-29T10:52:41;99633.54;;;12.34;84.23
51259;BME280;37327;54.254;18.504;2022-09-29T10:55:52;99638.91;;;12.41;84.22
51259;BME280;37327;54.254;18.504;2022-09-29T10:59:00;99643.05;;;12.43;83.96
51259;BME280;37327;54.254;18.504;2022-09-29T11:02:10;99646.41;;;12.39;83.72
51259;BME280;37327;54.254;18.504;2022-09-29T11:05:51;99636.01;;;12.36;83.61
51259;BME280;37327;54.254;18.504;2022-09-29T11:09:05;99643.52;;;12.34;83.03
51259;BME280;37327;54.254;18.504;2022-09-29T11:15:39;99653.22;;;12.55;82.83
51259;BME280;37327;54.254;18.504;2022-09-29T11:19:13;99651.31;;;12.62;82.37
51259;BME280;37327;54.254;18.504;2022-09-29T11:33:03;99653.84;;;12.95;80.47
51259;BME280;37327;54.254;18.504;2022-09-29T11:36:23;99670.63;;;13.11;80.80
51259;BME280;37327;54.254;18.504;2022-09-29T11:46:58;99674.82;;;13.07;80.52
51259;BME280;37327;54.254;18.504;2022-09-29T11:50:35;99671.10;;;13.01;79.97
51259;BME280;37327;54.254;18.504;2022-09-29T11:57:52;99675.10;;;13.23;80.23
51259;BME280;37327;54.254;18.504;2022-09-29T12:04:22;99683.41;;;13.29;79.50
51259;BME280;37327;54.254;18.504;2022-09-29T12:17:55;99687.59;;;13.31;79.70
51259;BME280;37327;54.254;18.504;2022-09-29T12:21:51;99679.18;;;13.39;79.79
51259;BME280;37327;54.254;18.504;2022-09-29T12:24:54;99682.07;;;13.45;79.12
51259;BME280;37327;54.254;18.504;2022-09-29T12:28:12;99680.98;;;13.52;79.19
51259;BME280;37327;54.254;18.504;2022-09-29T12:31:31;99688.60;;;13.62;79.96
51259;BME280;37327;54.254;18.504;2022-09-29T12:35:16;99693.09;;;13.75;80.17
51259;BME280;37327;54.254;18.504;2022-09-29T12:38:30;99702.66;;;13.77;78.72
51259;BME280;37327;54.254;18.504;2022-09-29T12:41:46;99700.23;;;13.69;77.82
51259;BME280;37327;54.254;18.504;2022-09-29T12:45:02;99706.98;;;13.60;78.07
51259;BME280;37327;54.254;18.504;2022-09-29T12:51:56;99704.77;;;13.50;77.48
51259;BME280;37327;54.254;18.504;2022-09-29T12:55:06;99711.72;;;13.39;78.10
51259;BME280;37327;54.254;18.504;2022-09-29T12:58:29;99704.28;;;13.28;78.49
51259;BME280;37327;54.254;18.504;2022-09-29T13:02:04;99707.23;;;13.20;78.93
51259;BME280;37327;54.254;18.504;2022-09-29T13:15:47;99707.15;;;13.40;77.97
51259;BME280;37327;54.254;18.504;2022-09-29T13:29:25;99712.57;;;13.40;78.56
51259;BME280;37327;54.254;18.504;2022-09-29T13:36:29;99720.43;;;13.48;79.06
51259;BME280;37327;54.254;18.504;2022-09-29T13:39:50;99712.93;;;13.43;77.90
51259;BME280;37327;54.254;18.504;2022-09-29T13:46:38;99718.88;;;13.34;78.00
51259;BME280;37327;54.254;18.504;2022-09-29T13:49:47;99730.54;;;13.34;78.39
51259;BME280;37327;54.254;18.504;2022-09-29T13:52:53;99722.62;;;13.33;77.81
51259;BME280;37327;54.254;18.504;2022-09-29T13:56:16;99726.60;;;13.30;77.23
51259;BME280;37327;54.254;18.504;2022-09-29T14:00:00;99728.67;;;13.28;78.54
51259;BME280;37327;54.254;18.504;2022-09-29T14:06:33;99737.84;;;13.27;78.41
51259;BME280;37327;54.254;18.504;2022-09-29T14:10:19;99734.73;;;13.23;78.50
51259;BME280;37327;54.254;18.504;2022-09-29T14:13:38;99736.41;;;13.24;78.80
51259;BME280;37327;54.254;18.504;2022-09-29T14:16:57;99739.95;;;13.25;79.51
51259;BME280;37327;54.254;18.504;2022-09-29T14:20:34;99744.75;;;13.23;79.21
51259;BME280;37327;54.254;18.504;2022-09-29T14:23:50;99757.48;;;13.22;78.54
51259;BME280;37327;54.254;18.504;2022-09-29T14:34:00;99756.94;;;13.07;80.88
51259;BME280;37327;54.254;18.504;2022-09-29T14:37:18;99764.05;;;13.01;79.93
51259;BME280;37327;54.254;18.504;2022-09-29T14:40:26;99765.08;;;13.00;80.40
51259;BME280;37327;54.254;18.504;2022-09-29T14:43:43;99760.68;;;13.06;81.15
51259;BME280;37327;54.254;18.504;2022-09-29T15:01:30;99788.35;;;12.70;81.35
51259;BME280;37327;54.254;18.504;2022-09-29T15:05:20;99792.95;;;12.62;80.73
51259;BME280;37327;54.254;18.504;2022-09-29T15:08:29;99805.24;;;12.58;81.18
51259;BME280;37327;54.254;18.504;2022-09-29T15:11:47;99802.33;;;12.53;81.13
51259;BME280;37327;54.254;18.504;2022-09-29T15:14:55;99812.98;;;12.48;81.36
51259;BME280;37327;54.254;18.504;2022-09-29T15:29:00;99828.41;;;12.14;82.48
51259;BME280;37327;54.254;18.504;2022-09-29T15:32:21;99830.30;;;12.07;82.58
51259;BME280;37327;54.254;18.504;2022-09-29T15:35:30;99834.46;;;12.03;83.17
51259;BME280;37327;54.254;18.504;2022-09-29T15:38:39;99833.41;;;11.97;83.43
51259;BME280;37327;54.254;18.504;2022-09-29T15:41:47;99838.80;;;11.91;83.59
51259;BME280;37327;54.254;18.504;2022-09-29T15:45:25;99841.05;;;11.80;83.52
51259;BME280;37327;54.254;18.504;2022-09-29T15:48:34;99848.31;;;11.73;83.58
51259;BME280;37327;54.254;18.504;2022-09-29T15:51:44;99865.37;;;11.67;83.69
51259;BME280;37327;54.254;18.504;2022-09-29T15:54:54;99857.05;;;11.62;83.78
51259;BME280;37327;54.254;18.504;2022-09-29T16:01:44;99871.59;;;11.54;84.12
51259;BME280;37327;54.254;18.504;2022-09-29T16:04:55;99870.30;;;11.50;84.34
51259;BME280;37327;54.254;18.504;2022-09-29T16:11:32;99885.26;;;11.46;84.90
51259;BME280;37327;54.254;18.504;2022-09-29T16:15:06;99889.02;;;11.45;85.08
51259;BME280;37327;54.254;18.504;2022-09-29T16:18:19;99891.92;;;11.43;85.47
51259;BME280;37327;54.254;18.504;2022-09-29T16:21:33;99888.98;;;11.38;85.51
51259;BME280;37327;54.254;18.504;2022-09-29T16:28:26;99895.38;;;11.31;85.96
51259;BME280;37327;54.254;18.504;2022-09-29T16:31:41;99898.07;;;11.24;86.07
51259;BME280;37327;54.254;18.504;2022-09-29T16:34:49;99899.31;;;11.21;86.45
51259;BME280;37327;54.254;18.504;2022-09-29T16:37:56;99906.36;;;11.16;86.53
51259;BME280;37327;54.254;18.504;2022-09-29T16:41:15;99907.16;;;11.10;86.69
51259;BME280;37327;54.254;18.504;2022-09-29T16:44:47;99911.04;;;11.00;86.67
51259;BME280;37327;54.254;18.504;2022-09-29T16:47:56;99912.48;;;10.96;86.58
51259;BME280;37327;54.254;18.504;2022-09-29T16:51:13;99916.62;;;10.92;86.87
51259;BME280;37327;54.254;18.504;2022-09-29T16:54:28;99915.35;;;10.88;86.69
51259;BME280;37327;54.254;18.504;2022-09-29T16:58:13;99923.38;;;10.81;86.00
51259;BME280;37327;54.254;18.504;2022-09-29T17:01:19;99931.84;;;10.72;86.13
51259;BME280;37327;54.254;18.504;2022-09-29T17:04:26;99931.80;;;10.65;86.17
51259;BME280;37327;54.254;18.504;2022-09-29T17:07:38;99937.77;;;10.60;86.55
51259;BME280;37327;54.254;18.504;2022-09-29T17:10:51;99938.77;;;10.53;86.48
51259;BME280;37327;54.254;18.504;2022-09-29T17:14:24;99946.80;;;10.46;87.18
51259;BME280;37327;54.254;18.504;2022-09-29T17:17:34;99956.31;;;10.42;87.24
51259;BME280;37327;54.254;18.504;2022-09-29T17:20:39;99952.52;;;10.36;87.42
51259;BME280;37327;54.254;18.504;2022-09-29T17:23:48;99956.01;;;10.30;87.74
51259;BME280;37327;54.254;18.504;2022-09-29T17:26:55;99961.32;;;10.23;87.38
51259;BME280;37327;54.254;18.504;2022-09-29T17:30:45;99960.67;;;10.21;87.48
51259;BME280;37327;54.254;18.504;2022-09-29T17:33:52;99960.00;;;10.19;87.41
51259;BME280;37327;54.254;18.504;2022-09-29T17:37:00;99970.37;;;10.16;87.56
51259;BME280;37327;54.254;18.504;2022-09-29T17:43:27;99979.15;;;10.03;87.62
51259;BME280;37327;54.254;18.504;2022-09-29T17:47:01;99979.33;;;10.01;88.17
51259;BME280;37327;54.254;18.504;2022-09-29T17:50:23;99979.51;;;10.00;88.66
51259;BME280;37327;54.254;18.504;2022-09-29T17:53:31;99983.63;;;9.96;88.31
51259;BME280;37327;54.254;18.504;2022-09-29T17:56:40;99976.57;;;9.95;88.19
51259;BME280;37327;54.254;18.504;2022-09-29T18:00:23;99985.03;;;9.92;88.79
51259;BME280;37327;54.254;18.504;2022-09-29T18:03:30;99993.12;;;9.92;89.22
51259;BME280;37327;54.254;18.504;2022-09-29T18:06:40;99992.48;;;9.89;89.38
51259;BME280;37327;54.254;18.504;2022-09-29T18:09:49;99997.23;;;9.87;89.89
51259;BME280;37327;54.254;18.504;2022-09-29T18:12:56;99999.27;;;9.85;89.98
51259;BME280;37327;54.254;18.504;2022-09-29T18:16:30;100001.73;;;9.80;90.20
51259;BME280;37327;54.254;18.504;2022-09-29T18:19:37;100003.09;;;9.76;90.47
51259;BME280;37327;54.254;18.504;2022-09-29T18:22:45;100003.31;;;9.75;90.81
51259;BME280;37327;54.254;18.504;2022-09-29T18:25:51;100007.20;;;9.72;90.97
51259;BME280;37327;54.254;18.504;2022-09-29T18:28:58;100007.20;;;9.72;91.12
51259;BME280;37327;54.254;18.504;2022-09-29T18:32:09;100010.94;;;9.71;91.36
51259;BME280;37327;54.254;18.504;2022-09-29T18:35:51;100009.43;;;9.68;91.78
51259;BME280;37327;54.254;18.504;2022-09-29T18:38:59;100017.09;;;9.65;91.91
51259;BME280;37327;54.254;18.504;2022-09-29T18:42:05;100030.27;;;9.60;91.97
51259;BME280;37327;54.254;18.504;2022-09-29T18:45:15;100031.85;;;9.54;92.68
51259;BME280;37327;54.254;18.504;2022-09-29T18:48:29;100034.25;;;9.49;92.57
51259;BME280;37327;54.254;18.504;2022-09-29T18:52:03;100036.52;;;9.45;92.70
51259;BME280;37327;54.254;18.504;2022-09-29T18:55:09;100037.91;;;9.41;92.84
51259;BME280;37327;54.254;18.504;2022-09-29T18:58:20;100038.27;;;9.38;92.96
51259;BME280;37327;54.254;18.504;2022-09-29T19:01:27;100055.82;;;9.34;93.15
51259;BME280;37327;54.254;18.504;2022-09-29T19:04:34;100054.70;;;9.28;93.18
51259;BME280;37327;54.254;18.504;2022-09-29T19:07:42;100058.80;;;9.24;93.45
51259;BME280;37327;54.254;18.504;2022-09-29T19:11:21;100060.53;;;9.17;93.57
51259;BME280;37327;54.254;18.504;2022-09-29T19:14:28;100063.61;;;9.14;93.93
51259;BME280;37327;54.254;18.504;2022-09-29T19:17:39;100073.09;;;9.10;94.11
51259;BME280;37327;54.254;18.504;2022-09-29T19:20:48;100072.78;;;9.05;94.25
51259;BME280;37327;54.254;18.504;2022-09-29T19:23:56;100076.69;;;9.02;94.28
51259;BME280;37327;54.254;18.504;2022-09-29T19:27:28;100081.11;;;8.95;94.59
51259;BME280;37327;54.254;18.504;2022-09-29T19:30:36;100088.54;;;8.93;94.59
51259;BME280;37327;54.254;18.504;2022-09-29T19:33:44;100089.92;;;8.89;94.79
51259;BME280;37327;54.254;18.504;2022-09-29T19:36:51;100098.34;;;8.86;94.97
51259;BME280;37327;54.254;18.504;2022-09-29T19:40:00;100104.10;;;8.83;94.96
51259;BME280;37327;54.254;18.504;2022-09-29T19:43:07;100107.80;;;8.82;95.26
51259;BME280;37327;54.254;18.504;2022-09-29T19:46:42;100109.36;;;8.76;95.44
51259;BME280;37327;54.254;18.504;2022-09-29T19:49:48;100106.18;;;8.73;95.14
51259;BME280;37327;54.254;18.504;2022-09-29T19:53:05;100111.45;;;8.66;95.28
51259;BME280;37327;54.254;18.504;2022-09-29T19:56:13;100108.27;;;8.62;95.25
51259;BME280;37327;54.254;18.504;2022-09-29T19:59:29;100114.04;;;8.59;95.30
51259;BME280;37327;54.254;18.504;2022-09-29T20:03:03;100120.76;;;8.55;95.17
51259;BME280;37327;54.254;18.504;2022-09-29T20:06:09;100123.99;;;8.50;95.38
51259;BME280;37327;54.254;18.504;2022-09-29T20:09:17;100123.23;;;8.42;95.36
51259;BME280;37327;54.254;18.504;2022-09-29T20:12:24;100126.88;;;8.41;96.28
51259;BME280;37327;54.254;18.504;2022-09-29T20:15:32;100122.53;;;8.40;96.44
51259;BME280;37327;54.254;18.504;2022-09-29T20:18:38;100125.22;;;8.40;96.80
51259;BME280;37327;54.254;18.504;2022-09-29T20:22:12;100125.56;;;8.37;96.95
51259;BME280;37327;54.254;18.504;2022-09-29T20:25:20;100129.25;;;8.36;97.25
51259;BME280;37327;54.254;18.504;2022-09-29T20:28:27;100122.38;;;8.33;97.44
51259;BME280;37327;54.254;18.504;2022-09-29T20:31:36;100122.22;;;8.35;97.36
51259;BME280;37327;54.254;18.504;2022-09-29T20:34:44;100131.28;;;8.34;97.50